Time;durP1;ratioP1;P1;durP2;ratioP2;P2;SDS_P1;SDS_P2;PMS_P1;PMS_P2;Temp;Humidity;BMP_temperature;BMP_pressure;BME280_temperature;BME280_humidity;BME280_pressure;Samples;Min_cycle;Max_cycle;Signal;HPM_P1;HPM_P2
2022/09/27 00:01:54;;;;;;;5.50;2.53;;;;;;;14.24;92.16;96948.38;5017149;28;20033;-58
2022/09/27 00:04:20;;;;;;;5.00;2.60;;;;;;;14.39;93.45;96967.19;5021572;28;20029;-59
2022/09/27 00:06:45;;;;;;;5.05;2.40;;;;;;;14.34;92.70;96969.63;5015286;28;20120;-58
2022/09/27 00:09:11;;;;;;;6.15;2.65;;;;;;;14.28;93.29;96970.47;5018121;28;20091;-58
2022/09/27 00:11:38;;;;;;;4.63;2.30;;;;;;;14.19;93.00;96963.88;5015137;28;20504;-58
2022/09/27 00:14:06;;;;;;;5.28;2.50;;;;;;;14.21;93.08;96959.25;5019731;28;20029;-58
2022/09/27 00:16:35;;;;;;;5.68;2.50;;;;;;;14.11;94.88;96949.25;5023083;28;20025;-58
2022/09/27 00:19:06;;;;;;;6.68;2.45;;;;;;;14.03;94.84;96939.81;5021314;28;20025;-59
2022/09/27 00:21:32;;;;;;;4.90;2.70;;;;;;;14.14;94.41;96948.00;5015573;28;20514;-58
2022/09/27 00:23:58;;;;;;;5.05;2.70;;;;;;;14.15;94.70;96947.00;5018714;28;20112;-58
2022/09/27 00:26:24;;;;;;;5.93;2.47;;;;;;;14.25;94.39;96960.41;5023610;28;20026;-58
2022/09/27 00:28:49;;;;;;;5.55;3.13;;;;;;;14.20;94.44;96957.63;5018779;28;20045;-58
2022/09/27 00:31:28;;;;;;;4.68;2.55;;;;;;;14.04;96.01;96956.31;5020355;28;20647;-59
2022/09/27 00:33:59;;;;;;;5.05;2.50;;;;;;;14.08;96.82;96960.09;5024421;28;20041;-58
2022/09/27 00:36:25;;;;;;;5.45;2.65;;;;;;;14.00;97.66;96953.31;5018610;28;20052;-58
2022/09/27 00:38:52;;;;;;;5.25;2.45;;;;;;;14.06;97.63;96951.66;5022798;28;20083;-58
2022/09/27 00:41:19;;;;;;;6.05;2.83;;;;;;;13.98;97.71;96957.94;5023899;28;20039;-58
2022/09/27 00:43:53;;;;;;;6.10;2.65;;;;;;;14.03;96.79;96965.13;5018505;28;20355;-58
2022/09/27 00:46:44;;;;;;;4.80;2.30;;;;;;;14.07;95.65;96957.69;5012576;28;20340;-58
2022/09/27 00:49:21;;;;;;;6.40;2.70;;;;;;;13.74;96.77;96916.81;5023025;28;20484;-58
2022/09/27 00:51:49;;;;;;;4.97;2.55;;;;;;;14.13;95.56;96946.44;5004478;28;20029;-57
2022/09/27 00:54:16;;;;;;;6.05;2.85;;;;;;;13.81;96.26;96891.47;5022994;28;20500;-58
2022/09/27 00:56:42;;;;;;;5.13;2.53;;;;;;;13.96;96.72;96922.56;5023384;28;20026;-58
2022/09/27 00:59:25;;;;;;;5.13;2.60;;;;;;;14.02;97.54;96924.34;5021877;28;20033;-58
2022/09/27 01:01:50;;;;;;;6.40;2.72;;;;;;;14.05;95.09;96916.09;5021846;28;20715;-60
2022/09/27 01:04:22;;;;;;;6.40;2.65;;;;;;;13.83;95.67;96887.63;5005776;28;20135;-58
2022/09/27 01:06:48;;;;;;;6.60;2.47;;;;;;;13.81;95.82;96888.84;5026160;28;20041;-58
2022/09/27 01:09:13;;;;;;;5.28;2.45;;;;;;;14.08;95.25;96920.09;5025129;28;20582;-58
2022/09/27 01:11:58;;;;;;;5.80;2.58;;;;;;;14.06;94.83;96919.50;5021066;28;20025;-58
2022/09/27 01:14:32;;;;;;;6.90;3.00;;;;;;;14.02;95.05;96919.94;5006898;28;20428;-58
2022/09/27 01:17:13;;;;;;;6.35;2.60;;;;;;;13.98;95.35;96910.91;5013281;28;20025;-58
2022/09/27 01:19:47;;;;;;;4.82;2.30;;;;;;;13.87;95.89;96913.34;5016704;28;20595;-58
2022/09/27 01:22:15;;;;;;;5.40;2.65;;;;;;;13.58;96.63;96905.00;5023771;28;20495;-59
2022/09/27 01:24:49;;;;;;;5.85;3.13;;;;;;;13.72;95.98;96905.78;5024304;28;20033;-59
2022/09/27 01:27:21;;;;;;;5.80;2.78;;;;;;;13.70;96.04;96899.94;5016883;28;20037;-58
2022/09/27 01:29:56;;;;;;;6.13;3.13;;;;;;;13.77;95.17;96901.53;5017255;28;20033;-58
2022/09/27 01:32:41;;;;;;;7.00;3.10;;;;;;;13.69;95.74;96893.94;5024552;28;20025;-59
2022/09/27 01:35:18;;;;;;;5.55;2.70;;;;;;;13.68;95.97;96888.91;5020675;28;20068;-59
2022/09/27 01:37:59;;;;;;;6.05;3.00;;;;;;;13.63;96.23;96892.94;5020000;28;20107;-58
2022/09/27 01:40:36;;;;;;;7.20;2.92;;;;;;;13.41;96.48;96845.41;5017279;28;20270;-58
2022/09/27 01:43:16;;;;;;;5.72;3.00;;;;;;;13.64;96.37;96876.25;5021122;28;20040;-58
2022/09/27 01:45:47;;;;;;;5.25;2.90;;;;;;;13.60;98.03;96871.66;5006733;28;20029;-59
2022/09/27 01:48:22;;;;;;;6.75;3.10;;;;;;;13.62;98.10;96874.88;5017774;28;20095;-58
2022/09/27 01:50:51;;;;;;;4.90;2.65;;;;;;;13.63;98.07;96873.84;5023756;28;20033;-58
2022/09/27 01:53:24;;;;;;;5.53;2.63;;;;;;;13.63;98.08;96873.84;5007179;28;20037;-58
2022/09/27 01:55:52;;;;;;;6.47;2.80;;;;;;;13.63;98.69;96863.41;5020332;28;20322;-59
2022/09/27 01:58:22;;;;;;;5.47;2.67;;;;;;;13.65;98.68;96858.78;5020233;28;20041;-59
2022/09/27 02:00:50;;;;;;;5.07;2.53;;;;;;;13.61;98.95;96847.94;5015861;28;20044;-58
2022/09/27 02:03:42;;;;;;;6.00;2.78;;;;;;;13.58;99.74;96850.16;5022652;28;20037;-59
2022/09/27 02:06:13;;;;;;;7.18;2.67;;;;;;;13.34;100.00;96804.66;5014236;28;20038;-59
2022/09/27 02:08:43;;;;;;;5.15;2.40;;;;;;;13.67;99.07;96838.47;5027635;28;20037;-58
2022/09/27 02:11:12;;;;;;;4.50;2.40;;;;;;;13.67;98.87;96837.69;5015860;28;20037;-58
2022/09/27 02:13:44;;;;;;;5.13;2.45;;;;;;;13.35;99.32;96785.41;5017279;28;20421;-58
2022/09/27 02:16:19;;;;;;;4.90;2.60;;;;;;;13.62;99.01;96818.22;5023327;28;20040;-59
2022/09/27 02:18:58;;;;;;;5.65;2.40;;;;;;;13.44;99.63;96824.09;5008000;28;20048;-59
2022/09/27 02:21:30;;;;;;;5.05;2.80;;;;;;;13.20;99.34;96783.00;5032357;28;20037;-58
2022/09/27 02:23:58;;;;;;;5.70;2.85;;;;;;;13.33;99.95;96801.25;5018880;28;20026;-58
2022/09/27 02:26:32;;;;;;;5.00;2.80;;;;;;;13.31;100.00;96813.72;5017797;28;20090;-59
2022/09/27 02:29:07;;;;;;;7.10;2.88;;;;;;;13.30;100.00;96814.69;5013638;28;20065;-59
2022/09/27 02:31:33;;;;;;;6.88;2.83;;;;;;;13.33;99.71;96805.69;5020450;28;20021;-58
2022/09/27 02:34:11;;;;;;;6.55;2.85;;;;;;;13.41;99.26;96806.22;5014915;28;20430;-59
2022/09/27 02:36:37;;;;;;;5.50;3.00;;;;;;;13.29;98.49;96797.44;5022878;28;20044;-58
2022/09/27 02:39:02;;;;;;;7.18;2.95;;;;;;;13.39;97.92;96810.06;5024563;28;20057;-58
2022/09/27 02:41:28;;;;;;;5.55;2.58;;;;;;;13.25;96.82;96798.84;5020602;28;20182;-58
2022/09/27 02:43:56;;;;;;;6.00;2.67;;;;;;;13.37;96.85;96810.28;5021161;28;20049;-58
2022/09/27 02:46:59;;;;;;;4.68;2.58;;;;;;;13.22;98.02;96809.69;5010227;28;20119;-58
2022/09/27 02:49:30;;;;;;;5.22;2.67;;;;;;;12.89;98.94;96767.03;5017758;28;20642;-59
2022/09/27 02:52:10;;;;;;;6.18;2.70;;;;;;;13.16;99.54;96803.50;5021461;28;20725;-58
2022/09/27 02:54:47;;;;;;;6.43;2.70;;;;;;;12.98;99.23;96806.75;5009402;28;20419;-58
2022/09/27 02:57:28;;;;;;;5.30;2.90;;;;;;;13.07;98.51;96813.34;5034375;28;20043;-58
2022/09/27 03:00:06;;;;;;;6.25;2.60;;;;;;;12.98;97.60;96788.50;5020902;28;20045;-59
2022/09/27 03:02:38;;;;;;;5.30;3.17;;;;;;;13.16;97.29;96821.75;5021032;28;20032;-58
2022/09/27 03:05:03;;;;;;;4.93;2.80;;;;;;;13.17;97.03;96822.56;5023016;28;20018;-59
2022/09/27 03:07:29;;;;;;;7.45;3.28;;;;;;;12.95;97.14;96790.69;5024769;28;20083;-58
2022/09/27 03:09:54;;;;;;;5.88;3.33;;;;;;;12.71;97.21;96769.47;5023818;28;20537;-58
2022/09/27 03:12:26;;;;;;;6.32;3.50;;;;;;;12.85;98.54;96819.78;5021889;28;20038;-58
2022/09/27 03:14:54;;;;;;;7.28;3.97;;;;;;;12.68;99.71;96825.41;5006600;28;20057;-58
2022/09/27 03:17:19;;;;;;;6.70;3.90;;;;;;;12.61;100.00;96816.84;5015737;28;20038;-58
2022/09/27 03:19:45;;;;;;;6.00;3.75;;;;;;;12.64;100.00;96802.56;5023791;28;20032;-59
2022/09/27 03:22:10;;;;;;;6.25;3.60;;;;;;;12.66;100.00;96805.78;5014558;28;20835;-59
2022/09/27 03:24:36;;;;;;;7.90;3.88;;;;;;;12.76;100.00;96800.16;5020370;28;20684;-59
2022/09/27 03:27:02;;;;;;;6.03;3.50;;;;;;;12.85;100.00;96794.53;5017938;28;20481;-59
2022/09/27 03:29:28;;;;;;;7.88;3.70;;;;;;;12.76;99.50;96780.09;5021522;28;20112;-59
2022/09/27 03:31:53;;;;;;;5.43;3.28;;;;;;;12.91;99.63;96798.13;5020375;28;20040;-59
2022/09/27 03:34:18;;;;;;;7.13;3.45;;;;;;;12.89;100.00;96793.13;5020619;28;20024;-58
2022/09/27 03:36:44;;;;;;;5.45;2.90;;;;;;;12.82;100.00;96789.72;5000150;28;20060;-58
2022/09/27 03:39:09;;;;;;;6.35;3.20;;;;;;;12.89;100.00;96789.72;5022778;28;20037;-58
2022/09/27 03:41:35;;;;;;;5.55;3.22;;;;;;;12.92;100.00;96794.50;5019056;28;20041;-59
2022/09/27 03:44:00;;;;;;;4.72;2.70;;;;;;;12.98;100.00;96774.66;5013090;28;20120;-59
2022/09/27 03:46:26;;;;;;;5.35;3.25;;;;;;;12.91;100.00;96766.03;5017114;28;20044;-58
2022/09/27 03:48:51;;;;;;;5.15;2.83;;;;;;;12.62;100.00;96719.34;5019387;28;20030;-59
2022/09/27 03:51:17;;;;;;;5.57;2.92;;;;;;;12.85;100.00;96770.22;5017001;28;20523;-59
2022/09/27 03:53:42;;;;;;;4.90;2.83;;;;;;;12.73;100.00;96753.63;5014383;28;20481;-58
2022/09/27 03:56:08;;;;;;;5.57;3.30;;;;;;;12.83;100.00;96773.06;5020039;28;20069;-58
2022/09/27 03:58:34;;;;;;;5.43;3.20;;;;;;;12.93;100.00;96767.41;5017511;28;20032;-59
2022/09/27 04:01:00;;;;;;;5.60;3.28;;;;;;;12.80;99.98;96773.47;5020190;28;20029;-59
2022/09/27 04:03:25;;;;;;;5.90;3.60;;;;;;;12.40;100.00;96728.41;5016315;28;20022;-59
2022/09/27 04:05:54;;;;;;;8.38;4.07;;;;;;;12.80;100.00;96778.69;5017371;28;20092;-59
2022/09/27 04:08:21;;;;;;;13.07;4.80;;;;;;;12.60;100.00;96764.88;5028100;28;20120;-58
2022/09/27 04:10:46;;;;;;;9.77;4.72;;;;;;;12.67;100.00;96763.88;5016764;28;20041;-59
2022/09/27 04:13:12;;;;;;;11.07;4.75;;;;;;;12.76;100.00;96771.47;5026120;28;20040;-59
2022/09/27 04:15:38;;;;;;;9.35;4.50;;;;;;;12.78;100.00;96778.09;5016197;28;20048;-58
2022/09/27 04:18:04;;;;;;;9.50;4.55;;;;;;;12.75;100.00;96772.47;5021110;28;20025;-60
2022/09/27 04:20:29;;;;;;;8.85;4.00;;;;;;;12.82;100.00;96787.09;5006960;28;20037;-58
2022/09/27 04:22:55;;;;;;;7.80;3.83;;;;;;;12.78;100.00;96782.50;5016397;28;20025;-58
2022/09/27 04:25:20;;;;;;;8.30;4.15;;;;;;;12.62;100.00;96787.13;5019616;28;20049;-59
2022/09/27 04:27:46;;;;;;;7.88;3.90;;;;;;;12.68;100.00;96778.47;5032671;28;20044;-59
2022/09/27 04:30:13;;;;;;;8.85;3.63;;;;;;;12.78;100.00;96790.34;5019912;28;20040;-58
2022/09/27 04:32:43;;;;;;;7.70;3.60;;;;;;;12.73;100.00;96775.28;5017925;28;20025;-59
2022/09/27 04:37:53;;;;;;;7.57;4.20;;;;;;;12.87;100.00;96776.06;5022050;28;20117;-58
2022/09/27 04:40:21;;;;;;;6.25;3.60;;;;;;;12.84;100.00;96782.47;5019581;28;20155;-59
2022/09/27 04:42:46;;;;;;;5.80;3.05;;;;;;;12.77;100.00;96773.06;5018033;28;20377;-58
2022/09/27 04:45:12;;;;;;;5.25;2.85;;;;;;;12.83;100.00;96783.50;5020448;28;20033;-59
2022/09/27 04:47:44;;;;;;;7.72;2.58;;;;;;;12.96;100.00;96774.84;5012283;28;20488;-58
2022/09/27 04:50:10;;;;;;;4.60;2.40;;;;;;;12.66;100.00;96733.56;5019354;28;20063;-60
2022/09/27 04:52:36;;;;;;;5.85;2.72;;;;;;;12.70;100.00;96739.19;5016141;28;20347;-59
2022/09/27 04:55:01;;;;;;;6.35;2.80;;;;;;;12.85;100.00;96771.06;5010468;28;20030;-58
2022/09/27 04:57:27;;;;;;;6.10;3.03;;;;;;;12.95;100.00;96768.00;5012608;28;20038;-58
2022/09/27 04:59:52;;;;;;;5.78;2.42;;;;;;;12.81;100.00;96735.13;5020449;28;20392;-59
2022/09/27 05:02:18;;;;;;;5.10;2.55;;;;;;;13.01;100.00;96785.44;5040525;28;20040;-59
2022/09/27 05:04:44;;;;;;;5.75;2.45;;;;;;;12.99;100.00;96784.06;5020045;28;20428;-59
2022/09/27 05:07:09;;;;;;;5.88;2.60;;;;;;;12.28;100.00;96663.88;5014647;28;20037;-58
2022/09/27 05:09:35;;;;;;;6.10;2.60;;;;;;;12.89;100.00;96758.41;5017044;28;20031;-59
2022/09/27 05:12:00;;;;;;;5.32;2.67;;;;;;;12.66;100.00;96724.94;5012555;28;20116;-59
2022/09/27 05:14:26;;;;;;;6.68;2.78;;;;;;;13.02;100.00;96763.59;5020611;28;20037;-59
2022/09/27 05:16:52;;;;;;;5.72;2.45;;;;;;;12.99;100.00;96747.53;5037463;28;20064;-58
2022/09/27 05:19:18;;;;;;;5.57;2.53;;;;;;;13.11;100.00;96760.75;5015527;28;20032;-58
2022/09/27 05:21:43;;;;;;;6.63;3.13;;;;;;;12.97;100.00;96745.13;5023109;28;20626;-58
2022/09/27 05:24:09;;;;;;;5.32;2.65;;;;;;;12.88;100.00;96723.69;5013801;28;20033;-59
2022/09/27 05:26:36;;;;;;;5.40;2.92;;;;;;;13.21;100.00;96774.16;5013027;28;20030;-58
2022/09/27 05:29:02;;;;;;;6.90;2.65;;;;;;;13.21;100.00;96771.56;5014064;28;20013;-59
2022/09/27 05:31:28;;;;;;;4.75;2.67;;;;;;;13.20;100.00;96775.97;4991676;28;20037;-58
2022/09/27 05:33:54;;;;;;;6.40;2.60;;;;;;;13.17;100.00;96784.22;5037916;28;20049;-59
2022/09/27 05:36:20;;;;;;;6.07;2.80;;;;;;;13.15;100.00;96781.00;5019236;28;20029;-58
2022/09/27 05:38:45;;;;;;;5.75;2.78;;;;;;;13.20;100.00;96780.41;5007693;28;20037;-58
2022/09/27 05:41:10;;;;;;;5.30;2.88;;;;;;;13.20;100.00;96783.00;5016169;28;20026;-59
2022/09/27 05:43:36;;;;;;;4.75;2.60;;;;;;;13.11;100.00;96782.44;5018994;28;20029;-59
2022/09/27 05:46:02;;;;;;;4.85;2.65;;;;;;;13.03;100.00;96774.81;5007521;28;20104;-59
2022/09/27 05:48:29;;;;;;;4.78;2.58;;;;;;;13.06;100.00;96774.41;5018966;28;20253;-58
2022/09/27 05:50:55;;;;;;;6.85;2.70;;;;;;;13.10;100.00;96788.63;5024597;28;20766;-58
2022/09/27 05:53:20;;;;;;;5.32;2.78;;;;;;;13.10;100.00;96780.81;5018673;28;20047;-58
2022/09/27 05:55:46;;;;;;;5.47;2.80;;;;;;;13.21;100.00;96776.78;5010380;28;20164;-58
2022/09/27 05:58:15;;;;;;;4.82;2.70;;;;;;;12.86;100.00;96732.72;5018559;28;20182;-59
2022/09/27 06:00:42;;;;;;;5.68;2.47;;;;;;;13.13;100.00;96774.41;5008581;28;20040;-60
2022/09/27 06:03:10;;;;;;;5.57;2.50;;;;;;;13.01;100.00;96774.22;5002372;28;20463;-60
2022/09/27 06:05:37;;;;;;;5.22;2.70;;;;;;;12.97;100.00;96778.25;5020200;28;20083;-60
2022/09/27 06:08:08;;;;;;;4.97;2.47;;;;;;;12.86;100.00;96777.06;5020637;28;20497;-60
2022/09/27 06:10:34;;;;;;;6.00;2.60;;;;;;;12.59;100.00;96734.59;5020366;28;20021;-60
2022/09/27 06:13:01;;;;;;;4.80;2.60;;;;;;;12.95;100.00;96775.06;5001090;28;20538;-60
2022/09/27 06:15:28;;;;;;;4.53;2.40;;;;;;;12.88;100.00;96778.44;5018535;28;20708;-59
2022/09/27 06:17:54;;;;;;;5.03;2.55;;;;;;;12.82;100.00;96768.06;5034460;28;20100;-60
2022/09/27 06:20:20;;;;;;;4.63;2.70;;;;;;;12.88;100.00;96775.84;4995874;28;20129;-61
2022/09/27 06:22:45;;;;;;;5.32;2.58;;;;;;;12.99;100.00;96776.22;5008534;28;20623;-59
2022/09/27 06:25:11;;;;;;;4.55;2.30;;;;;;;12.90;100.00;96757.38;5010905;28;20055;-58
2022/09/27 06:27:36;;;;;;;6.22;2.60;;;;;;;12.94;100.00;96770.81;5018094;28;20030;-60
2022/09/27 06:30:03;;;;;;;4.82;2.63;;;;;;;13.00;100.00;96777.84;5000847;28;20025;-57
2022/09/27 06:32:29;;;;;;;4.70;2.42;;;;;;;12.99;100.00;96766.59;5031322;28;20026;-60
2022/09/27 06:34:54;;;;;;;5.50;2.28;;;;;;;12.96;100.00;96779.25;5020775;28;20380;-60
2022/09/27 06:37:19;;;;;;;5.38;2.83;;;;;;;12.99;100.00;96773.63;5016934;28;20116;-60
2022/09/27 06:39:47;;;;;;;5.35;2.72;;;;;;;13.07;100.00;96776.03;5013670;28;20525;-60
2022/09/27 06:42:13;;;;;;;5.30;2.35;;;;;;;13.09;100.00;96774.00;5009656;28;20037;-60
2022/09/27 06:44:38;;;;;;;4.60;2.55;;;;;;;13.04;100.00;96768.59;5022421;28;20030;-60
2022/09/27 06:47:04;;;;;;;5.03;2.65;;;;;;;13.11;100.00;96768.59;5004464;28;20045;-58
2022/09/27 06:49:30;;;;;;;5.93;2.42;;;;;;;13.20;100.00;96772.56;5028034;28;20029;-58
2022/09/27 06:51:56;;;;;;;5.97;2.55;;;;;;;13.26;100.00;96787.41;5018232;28;20033;-58
2022/09/27 06:54:21;;;;;;;4.03;2.03;;;;;;;13.22;100.00;96784.41;5018619;28;20556;-57
2022/09/27 06:56:47;;;;;;;5.45;2.60;;;;;;;13.05;100.00;96770.19;5021397;28;20036;-58
2022/09/27 07:01:56;;;;;;;5.13;2.50;;;;;;;13.08;100.00;96773.19;4960133;28;20848;-58
2022/09/27 07:04:22;;;;;;;6.05;2.80;;;;;;;12.80;100.00;96744.00;5019699;28;20029;-58
2022/09/27 07:06:48;;;;;;;5.30;2.90;;;;;;;13.02;100.00;96784.47;5020411;28;20052;-58
2022/09/27 07:09:13;;;;;;;5.78;2.20;;;;;;;12.98;100.00;96785.09;5012421;28;20133;-58
2022/09/27 07:11:39;;;;;;;4.85;2.42;;;;;;;13.00;100.00;96780.47;5020665;28;20034;-58
2022/09/27 07:14:05;;;;;;;4.75;2.35;;;;;;;13.03;100.00;96777.41;5021069;28;20830;-58
2022/09/27 07:16:30;;;;;;;4.80;2.70;;;;;;;13.08;100.00;96767.97;5016926;28;20061;-59
2022/09/27 07:18:59;;;;;;;6.82;3.08;;;;;;;13.06;100.00;96777.81;4952733;28;20036;-58
2022/09/27 07:21:25;;;;;;;5.75;3.50;;;;;;;13.08;100.00;96788.03;5016963;28;20087;-58
2022/09/27 07:23:50;;;;;;;5.55;3.35;;;;;;;13.11;100.00;96785.03;5019798;28;20029;-58
2022/09/27 07:26:16;;;;;;;4.85;2.88;;;;;;;13.06;100.00;96784.84;5016911;28;20041;-58
2022/09/27 07:28:41;;;;;;;8.05;3.22;;;;;;;12.70;100.00;96731.34;5019489;28;20037;-58
2022/09/27 07:31:07;;;;;;;6.35;2.90;;;;;;;13.07;100.00;96770.81;5014426;28;20710;-58
2022/09/27 07:33:34;;;;;;;5.55;3.13;;;;;;;12.90;99.88;96736.53;5008185;28;20440;-58
2022/09/27 07:35:59;;;;;;;5.57;2.92;;;;;;;13.20;100.00;96777.78;5012775;28;20032;-59
2022/09/27 07:38:25;;;;;;;6.43;3.13;;;;;;;13.16;100.00;96777.41;4998156;28;20388;-59
2022/09/27 07:40:51;;;;;;;6.10;3.10;;;;;;;12.98;98.29;96732.91;5022117;28;20036;-58
2022/09/27 07:43:16;;;;;;;6.13;3.50;;;;;;;13.27;99.66;96781.97;5002387;28;20441;-58
2022/09/27 07:45:42;;;;;;;7.25;3.22;;;;;;;13.32;97.95;96778.75;5019929;28;20034;-59
2022/09/27 07:48:09;;;;;;;6.53;3.40;;;;;;;13.31;98.11;96779.00;5019857;28;20104;-57
2022/09/27 07:50:37;;;;;;;6.03;3.63;;;;;;;13.42;98.99;96773.13;5014210;28;20757;-59
2022/09/27 07:53:03;;;;;;;7.50;3.30;;;;;;;13.40;98.12;96781.16;5035460;28;20041;-58
2022/09/27 07:55:29;;;;;;;6.13;3.20;;;;;;;13.40;98.29;96783.75;5029972;28;20690;-58
2022/09/27 07:58:08;;;;;;;6.38;3.40;;;;;;;13.45;97.76;96773.50;5018608;28;20029;-58
2022/09/27 08:00:34;;;;;;;7.88;3.33;;;;;;;13.40;96.79;96767.31;5007272;28;20030;-59
2022/09/27 08:03:04;;;;;;;6.43;3.28;;;;;;;13.49;97.85;96778.28;5015940;28;20026;-58
2022/09/27 08:05:30;;;;;;;6.60;3.42;;;;;;;13.51;98.25;96773.66;5033557;28;20029;-59
2022/09/27 08:07:56;;;;;;;7.00;3.08;;;;;;;13.48;96.48;96769.66;5015795;28;20048;-59
2022/09/27 08:10:24;;;;;;;5.60;3.03;;;;;;;13.47;96.12;96778.53;5022103;28;20041;-58
2022/09/27 08:12:49;;;;;;;6.35;3.00;;;;;;;13.55;94.70;96782.69;5001529;28;20472;-59
2022/09/27 08:15:15;;;;;;;5.28;3.00;;;;;;;13.40;95.99;96791.59;5020169;28;20029;-58
2022/09/27 08:17:41;;;;;;;7.00;3.17;;;;;;;13.42;97.11;96789.56;5017858;28;20101;-58
2022/09/27 08:20:06;;;;;;;7.07;3.20;;;;;;;13.52;97.03;96783.09;5011340;28;20060;-58
2022/09/27 08:22:32;;;;;;;5.00;2.70;;;;;;;13.28;98.13;96751.44;5018147;28;20444;-58
2022/09/27 08:24:57;;;;;;;5.30;2.47;;;;;;;13.43;96.88;96785.97;5018163;28;20063;-58
2022/09/27 08:27:22;;;;;;;4.35;2.28;;;;;;;13.46;96.34;96779.53;5020785;28;20091;-57
2022/09/27 08:29:48;;;;;;;4.60;2.30;;;;;;;13.53;95.76;96776.91;5017564;28;20037;-58
2022/09/27 08:32:15;;;;;;;4.70;2.00;;;;;;;13.57;94.54;96786.69;5018510;28;20621;-58
2022/09/27 08:34:40;;;;;;;4.35;2.10;;;;;;;13.58;94.41;96777.03;5015605;28;20931;-58
2022/09/27 08:37:06;;;;;;;4.22;2.10;;;;;;;13.58;95.22;96780.47;5022302;28;20092;-58
2022/09/27 08:39:31;;;;;;;6.18;2.15;;;;;;;13.51;94.82;96779.72;5022492;28;20124;-57
2022/09/27 08:42:00;;;;;;;4.60;2.50;;;;;;;13.50;95.53;96787.75;5009970;28;20437;-57
2022/09/27 08:44:53;;;;;;;5.13;2.60;;;;;;;13.44;94.77;96776.31;5019604;28;20049;-58
2022/09/27 08:47:47;;;;;;;7.25;2.70;;;;;;;13.42;92.53;96778.34;5030941;28;20037;-58
2022/09/27 08:50:19;;;;;;;7.00;2.75;;;;;;;13.51;94.99;96776.28;5023426;28;20411;-58
2022/09/27 08:52:53;;;;;;;7.18;3.10;;;;;;;13.57;95.41;96773.63;5016257;28;20044;-57
2022/09/27 08:55:24;;;;;;;6.65;3.38;;;;;;;13.58;96.03;96777.88;5020128;28;20029;-57
2022/09/27 08:57:55;;;;;;;6.00;3.67;;;;;;;13.23;95.40;96741.66;5018460;28;20165;-58
2022/09/27 09:00:22;;;;;;;6.22;2.90;;;;;;;13.48;94.55;96769.66;5025168;28;20025;-58
2022/09/27 09:02:47;;;;;;;6.10;3.00;;;;;;;13.31;90.45;96729.41;5001445;28;20034;-58
2022/09/27 09:05:33;;;;;;;6.13;3.00;;;;;;;13.63;89.28;96770.22;5024410;28;20083;-58
2022/09/27 09:08:21;;;;;;;7.63;3.00;;;;;;;13.76;89.81;96774.56;5020211;28;20033;-58
2022/09/27 09:14:14;;;;;;;4.65;1.88;;;;;;;13.88;85.71;96777.28;5021328;28;20048;-58
2022/09/27 09:16:52;;;;;;;4.60;2.10;;;;;;;13.96;86.51;96777.06;5012760;28;20097;-57
2022/09/27 09:19:27;;;;;;;5.90;1.92;;;;;;;14.06;83.85;96775.78;5021936;28;20115;-58
2022/09/27 09:22:20;;;;;;;4.93;2.05;;;;;;;13.95;84.67;96740.69;5022690;28;20025;-57
2022/09/27 09:25:12;;;;;;;4.63;1.85;;;;;;;14.08;84.50;96769.31;5017156;28;20025;-58
2022/09/27 09:27:40;;;;;;;5.97;2.10;;;;;;;14.15;85.58;96772.69;4997962;28;20673;-57
2022/09/27 09:30:24;;;;;;;5.13;2.13;;;;;;;14.32;85.90;96764.34;5021290;28;20500;-57
2022/09/27 09:32:56;;;;;;;5.47;2.95;;;;;;;14.70;83.34;96761.59;5021025;28;20040;-58
2022/09/27 09:35:30;;;;;;;7.82;3.38;;;;;;;14.82;85.35;96758.28;5022638;28;20021;-58
2022/09/27 09:37:58;;;;;;;5.03;2.10;;;;;;;14.90;82.63;96758.00;5019142;28;20044;-58
2022/09/27 09:40:36;;;;;;;4.20;1.60;;;;;;;14.93;81.91;96747.06;5021096;28;20021;-58
2022/09/27 09:43:12;;;;;;;7.43;1.88;;;;;;;15.06;78.83;96760.03;5027102;28;20132;-58
2022/09/27 09:45:46;;;;;;;4.15;1.60;;;;;;;15.16;78.79;96755.06;5004406;28;20014;-58
2022/09/27 09:48:22;;;;;;;3.88;1.60;;;;;;;14.98;79.22;96711.38;5021864;28;20057;-58
2022/09/27 09:50:51;;;;;;;5.10;1.85;;;;;;;15.44;77.46;96737.22;5014614;28;20563;-58
2022/09/27 09:53:21;;;;;;;3.72;1.60;;;;;;;15.72;78.38;96736.66;5017132;28;20367;-58
2022/09/27 09:56:00;;;;;;;5.03;2.03;;;;;;;15.85;77.16;96723.41;5003224;28;20062;-58
2022/09/27 09:58:27;;;;;;;4.55;1.77;;;;;;;16.05;76.02;96735.41;5032295;28;20029;-58
2022/09/27 10:00:55;;;;;;;5.93;2.17;;;;;;;15.83;76.40;96701.84;5014146;28;20060;-59
2022/09/27 10:03:23;;;;;;;5.10;2.15;;;;;;;16.00;76.00;96728.22;5013838;28;20036;-58
2022/09/27 10:05:48;;;;;;;6.10;3.15;;;;;;;16.15;76.41;96725.16;5020138;28;20033;-58
2022/09/27 10:08:18;;;;;;;6.90;3.03;;;;;;;16.17;75.31;96730.19;5018485;28;20035;-58
2022/09/27 10:10:43;;;;;;;5.57;2.58;;;;;;;16.52;70.87;96732.84;5014303;28;20021;-58
2022/09/27 10:13:15;;;;;;;6.88;2.80;;;;;;;16.48;71.18;96731.69;5018285;28;20033;-58
2022/09/27 10:15:40;;;;;;;4.93;2.42;;;;;;;16.46;72.23;96729.28;5009847;28;20029;-58
2022/09/27 10:18:11;;;;;;;4.70;2.58;;;;;;;16.28;73.78;96697.91;5017019;28;20056;-59
2022/09/27 10:20:52;;;;;;;8.25;2.83;;;;;;;16.55;72.91;96729.72;5016631;28;20033;-58
2022/09/27 10:23:20;;;;;;;6.97;2.40;;;;;;;16.87;71.36;96730.19;5012926;28;20067;-58
2022/09/27 10:25:52;;;;;;;4.70;2.40;;;;;;;16.95;69.98;96687.03;4998777;28;20476;-58
2022/09/27 10:28:37;;;;;;;4.22;2.10;;;;;;;17.11;68.63;96688.16;5020825;28;20021;-58
2022/09/27 10:31:14;;;;;;;4.93;2.10;;;;;;;17.47;67.34;96718.50;5035448;28;20112;-58
2022/09/27 10:33:53;;;;;;;5.88;1.73;;;;;;;17.49;67.73;96724.31;5015351;28;20025;-59
2022/09/27 10:36:30;;;;;;;4.25;1.70;;;;;;;17.57;65.67;96733.66;5017449;28;20083;-59
2022/09/27 11:02:32;;;;;;;3.30;1.50;;;;;;;18.17;59.62;96726.28;5086608;27;20885;-59
2022/09/27 11:05:26;;;;;;;3.20;1.33;;;;;;;18.15;64.98;96712.56;5085556;28;20078;-59
2022/09/27 11:07:54;;;;;;;3.63;1.38;;;;;;;18.19;61.33;96719.72;5074617;28;20105;-59
2022/09/27 11:10:33;;;;;;;5.82;2.78;;;;;;;18.10;57.80;96718.53;5090340;28;20078;-58
2022/09/27 11:13:05;;;;;;;3.00;1.17;;;;;;;18.12;58.62;96713.03;5077601;28;20043;-60
2022/09/27 11:15:30;;;;;;;3.60;1.20;;;;;;;18.18;58.56;96714.72;5087538;28;20465;-59
2022/09/27 11:18:04;;;;;;;3.13;1.23;;;;;;;18.24;58.19;96714.56;5076311;28;20471;-59
2022/09/27 11:20:38;;;;;;;3.45;1.17;;;;;;;18.12;57.85;96690.16;5087162;28;20537;-58
2022/09/27 11:23:35;;;;;;;4.80;1.38;;;;;;;18.32;59.15;96705.47;5081537;28;20038;-58
2022/09/27 11:26:19;;;;;;;6.78;1.30;;;;;;;18.40;62.52;96705.06;5086638;28;20028;-58
2022/09/27 11:28:48;;;;;;;3.22;1.30;;;;;;;18.46;60.82;96705.94;5084343;28;20034;-58
2022/09/27 11:31:19;;;;;;;4.00;1.35;;;;;;;18.25;60.94;96671.44;5092592;28;20032;-59
2022/09/27 11:33:59;;;;;;;3.85;1.40;;;;;;;18.52;61.52;96702.31;5082404;28;20485;-58
2022/09/27 11:36:27;;;;;;;3.72;1.58;;;;;;;18.41;59.03;96695.34;5086963;28;20054;-59
2022/09/27 11:39:04;;;;;;;4.75;1.65;;;;;;;18.36;59.73;96703.16;5111706;27;20035;-57
2022/09/27 11:41:30;;;;;;;4.18;1.20;;;;;;;18.56;58.30;96694.75;5078724;28;20024;-59
2022/09/27 11:44:01;;;;;;;4.28;1.17;;;;;;;18.54;51.94;96697.63;5088286;28;20961;-57
2022/09/27 11:46:38;;;;;;;3.67;1.20;;;;;;;18.46;53.83;96689.38;5080129;28;20028;-58
2022/09/27 11:49:22;;;;;;;2.88;1.00;;;;;;;18.57;55.57;96689.25;5076938;28;20032;-57
2022/09/27 11:52:15;;;;;;;3.45;1.17;;;;;;;18.47;55.00;96686.47;5083474;28;20119;-57
2022/09/27 11:54:57;;;;;;;3.08;1.00;;;;;;;18.47;55.63;96681.19;5087431;28;20035;-58
2022/09/27 11:57:30;;;;;;;2.83;0.85;;;;;;;18.53;49.56;96693.41;5081461;28;20033;-57
2022/09/27 12:00:09;;;;;;;2.83;0.80;;;;;;;18.54;50.99;96679.19;5094433;28;20051;-57
2022/09/27 12:03:08;;;;;;;1.92;0.70;;;;;;;18.67;48.43;96680.69;5084794;27;20070;-57
2022/09/27 12:05:58;;;;;;;2.05;0.75;;;;;;;18.73;50.66;96682.34;5078979;28;20036;-57
2022/09/27 12:09:01;;;;;;;3.30;0.80;;;;;;;18.75;46.57;96659.22;5084559;28;20040;-58
2022/09/27 12:11:35;;;;;;;2.80;1.00;;;;;;;18.97;58.34;96679.50;5096336;27;20039;-58
2022/09/27 12:14:03;;;;;;;2.63;0.65;;;;;;;19.16;48.08;96679.97;5074596;28;20036;-58
2022/09/27 12:16:29;;;;;;;1.35;0.50;;;;;;;19.43;43.76;96673.94;5078316;28;20047;-58